レゾリュート の空港の天気 - METARとTAF

レゾリュート空港 ( CYRB / YRB ) - カナダ ヌナブト準州レゾリュート
飛行場実況気象(Metar)
観測時間08/11 02:00 CDT (08/11 07:00 UTC)
風向・風速北北西 3m/s
視程10km以上
天気現象
全天の8割程度の雲 雲底高度 7320m
気温5℃
湿度87%
気圧1005.8hPa
METARCYRB 110700Z 33006KT 30SM BKN240 05/03 A2968 RMK CI7 SLP058
過去の天気等 Google飛行場航空写真 Wunderground天気予報

過去48時間のMETAR

飛行場予報(TAF)
発表時間: 8/11 00:38 CDT (8/11 05:38 UTC)
予報対象時間: 11日1時 CDT ~ 12日1時 CDT
風向・風速北北西 3m/s
視程10km以上
全天の8割程度の雲 雲底高度 7320m
11日7時 CDT ~ 11日9時 CDT に徐々に
風向・風速西 5m/s
11日9時 CDT から
風向・風速西 5m/s
視程10km以上
全天の4割程度の雲 雲底高度 150m
11日9時 CDT ~ 11日16時 CDT に一時的に
視程3220m
天気現象もや
全天の8割程度の雲 雲底高度 150m
11日16時 CDT から
風向・風速西 9m/s
視程10km以上
全天の4割程度の雲 雲底高度 150m
全天の8割程度の雲 雲底高度 460m
11日16時 CDT ~ 12日1時 CDT に一時的に
視程3220m
天気現象弱い雨 もや
全天の8割程度の雲 雲底高度 150m
TAF CYRB 110538Z 1106/1206 34005KT P6SM BKN240
BECMG 1112/1114 28010KT
FM111400 28010KT P6SM SCT005
TEMPO 1114/1121 2SM BR BKN005
FM112100 28017KT P6SM SCT005 BKN015
TEMPO 1121/1206 2SM -RA BR BKN005 RMK NXT FCST BY 111200Z